sensor_id;sensor_type;location;lat;lon;timestamp;temperature;humidity
13074;DHT22;6603;47.066;15.396;2022-12-07T00:01:09;2.20;99.90
13074;DHT22;6603;47.066;15.396;2022-12-07T00:03:37;2.10;99.90
13074;DHT22;6603;47.066;15.396;2022-12-07T00:06:05;2.10;99.90
13074;DHT22;6603;47.066;15.396;2022-12-07T00:08:32;2.20;99.90
13074;DHT22;6603;47.066;15.396;2022-12-07T00:11:07;2.10;99.90
13074;DHT22;6603;47.066;15.396;2022-12-07T00:13:34;2.10;99.90
13074;DHT22;6603;47.066;15.396;2022-12-07T00:16:08;1.90;99.90
13074;DHT22;6603;47.066;15.396;2022-12-07T00:18:35;1.80;99.90
13074;DHT22;6603;47.066;15.396;2022-12-07T00:21:06;1.80;99.90
13074;DHT22;6603;47.066;15.396;2022-12-07T00:23:33;1.80;99.90
13074;DHT22;6603;47.066;15.396;2022-12-07T00:26:34;1.80;99.90
13074;DHT22;6603;47.066;15.396;2022-12-07T00:29:03;1.90;99.90
13074;DHT22;6603;47.066;15.396;2022-12-07T00:31:32;1.90;99.90
13074;DHT22;6603;47.066;15.396;2022-12-07T00:33:59;1.90;99.90
13074;DHT22;6603;47.066;15.396;2022-12-07T00:36:25;1.90;99.90
13074;DHT22;6603;47.066;15.396;2022-12-07T00:38:51;1.80;99.90
13074;DHT22;6603;47.066;15.396;2022-12-07T00:41:19;1.90;99.90
13074;DHT22;6603;47.066;15.396;2022-12-07T00:43:47;1.90;99.90
13074;DHT22;6603;47.066;15.396;2022-12-07T00:46:14;1.70;99.90
13074;DHT22;6603;47.066;15.396;2022-12-07T00:48:40;1.60;99.90
13074;DHT22;6603;47.066;15.396;2022-12-07T00:51:08;1.50;99.90
13074;DHT22;6603;47.066;15.396;2022-12-07T00:53:36;1.60;99.90
13074;DHT22;6603;47.066;15.396;2022-12-07T00:56:09;1.60;99.90
13074;DHT22;6603;47.066;15.396;2022-12-07T00:58:35;1.80;99.90
13074;DHT22;6603;47.066;15.396;2022-12-07T01:01:03;1.90;99.90
13074;DHT22;6603;47.066;15.396;2022-12-07T01:03:29;1.80;99.90
13074;DHT22;6603;47.066;15.396;2022-12-07T01:05:57;1.50;99.90
13074;DHT22;6603;47.066;15.396;2022-12-07T01:08:24;1.40;99.90
13074;DHT22;6603;47.066;15.396;2022-12-07T01:11:03;1.20;99.90
13074;DHT22;6603;47.066;15.396;2022-12-07T01:13:29;1.20;99.90
13074;DHT22;6603;47.066;15.396;2022-12-07T01:15:59;1.30;99.90
13074;DHT22;6603;47.066;15.396;2022-12-07T01:18:27;1.40;99.90
13074;DHT22;6603;47.066;15.396;2022-12-07T01:21:00;1.30;99.90
13074;DHT22;6603;47.066;15.396;2022-12-07T01:23:26;1.40;99.90
13074;DHT22;6603;47.066;15.396;2022-12-07T01:26:00;1.40;99.90
13074;DHT22;6603;47.066;15.396;2022-12-07T01:28:27;1.40;99.90
13074;DHT22;6603;47.066;15.396;2022-12-07T01:31:20;1.40;99.90
13074;DHT22;6603;47.066;15.396;2022-12-07T01:33:49;1.30;99.90
13074;DHT22;6603;47.066;15.396;2022-12-07T01:36:17;1.30;99.90
13074;DHT22;6603;47.066;15.396;2022-12-07T01:38:45;1.40;99.90
13074;DHT22;6603;47.066;15.396;2022-12-07T01:41:12;1.30;99.90
13074;DHT22;6603;47.066;15.396;2022-12-07T01:46:50;1.30;99.90
13074;DHT22;6603;47.066;15.396;2022-12-07T01:49:32;1.30;99.90
13074;DHT22;6603;47.066;15.396;2022-12-07T01:52:24;1.30;99.90
13074;DHT22;6603;47.066;15.396;2022-12-07T01:54:56;1.30;99.90
13074;DHT22;6603;47.066;15.396;2022-12-07T01:57:24;1.30;99.90
13074;DHT22;6603;47.066;15.396;2022-12-07T01:59:51;1.30;99.90
13074;DHT22;6603;47.066;15.396;2022-12-07T02:02:38;1.20;99.90
13074;DHT22;6603;47.066;15.396;2022-12-07T02:05:07;1.30;99.90
13074;DHT22;6603;47.066;15.396;2022-12-07T02:07:36;1.30;99.90
13074;DHT22;6603;47.066;15.396;2022-12-07T02:10:21;1.50;99.90
13074;DHT22;6603;47.066;15.396;2022-12-07T02:12:56;1.30;99.90
13074;DHT22;6603;47.066;15.396;2022-12-07T02:15:39;1.30;99.90
13074;DHT22;6603;47.066;15.396;2022-12-07T02:31:55;1.20;99.90
13074;DHT22;6603;47.066;15.396;2022-12-07T02:40:09;1.10;99.90
13074;DHT22;6603;47.066;15.396;2022-12-07T02:42:45;1.20;99.90
13074;DHT22;6603;47.066;15.396;2022-12-07T02:45:15;1.20;99.90
13074;DHT22;6603;47.066;15.396;2022-12-07T02:47:44;1.20;99.90
13074;DHT22;6603;47.066;15.396;2022-12-07T02:50:11;1.20;99.90
13074;DHT22;6603;47.066;15.396;2022-12-07T02:52:37;1.20;99.90
13074;DHT22;6603;47.066;15.396;2022-12-07T02:55:04;1.20;99.90
13074;DHT22;6603;47.066;15.396;2022-12-07T02:58:14;1.30;99.90
13074;DHT22;6603;47.066;15.396;2022-12-07T03:00:52;1.30;99.90
13074;DHT22;6603;47.066;15.396;2022-12-07T03:03:20;1.10;99.90
13074;DHT22;6603;47.066;15.396;2022-12-07T03:10:58;1.00;99.90
13074;DHT22;6603;47.066;15.396;2022-12-07T03:18:45;1.20;99.90
13074;DHT22;6603;47.066;15.396;2022-12-07T03:21:16;1.20;99.90
13074;DHT22;6603;47.066;15.396;2022-12-07T03:23:46;1.20;99.90
13074;DHT22;6603;47.066;15.396;2022-12-07T03:26:16;1.30;99.90
13074;DHT22;6603;47.066;15.396;2022-12-07T03:28:49;1.30;99.90
13074;DHT22;6603;47.066;15.396;2022-12-07T03:31:22;1.20;99.90
13074;DHT22;6603;47.066;15.396;2022-12-07T03:33:59;1.20;99.90
13074;DHT22;6603;47.066;15.396;2022-12-07T03:36:36;0.90;99.90
13074;DHT22;6603;47.066;15.396;2022-12-07T03:41:43;1.00;99.90
13074;DHT22;6603;47.066;15.396;2022-12-07T03:44:09;0.90;99.90
13074;DHT22;6603;47.066;15.396;2022-12-07T03:49:24;0.80;99.90
13074;DHT22;6603;47.066;15.396;2022-12-07T03:56:56;0.60;99.90
13074;DHT22;6603;47.066;15.396;2022-12-07T03:59:23;0.50;99.90
13074;DHT22;6603;47.066;15.396;2022-12-07T04:01:54;0.40;99.90
13074;DHT22;6603;47.066;15.396;2022-12-07T04:04:22;0.40;99.90
13074;DHT22;6603;47.066;15.396;2022-12-07T04:06:49;0.40;99.90
13074;DHT22;6603;47.066;15.396;2022-12-07T04:09:15;0.40;99.90
13074;DHT22;6603;47.066;15.396;2022-12-07T04:11:42;0.40;99.90
13074;DHT22;6603;47.066;15.396;2022-12-07T04:14:08;0.40;99.90
13074;DHT22;6603;47.066;15.396;2022-12-07T04:16:52;0.40;99.90
13074;DHT22;6603;47.066;15.396;2022-12-07T04:19:20;0.50;99.90
13074;DHT22;6603;47.066;15.396;2022-12-07T04:21:47;0.50;99.90
13074;DHT22;6603;47.066;15.396;2022-12-07T04:24:14;0.40;99.90
13074;DHT22;6603;47.066;15.396;2022-12-07T04:26:41;0.60;99.90
13074;DHT22;6603;47.066;15.396;2022-12-07T04:29:08;0.60;99.90
13074;DHT22;6603;47.066;15.396;2022-12-07T04:31:35;0.50;99.90
13074;DHT22;6603;47.066;15.396;2022-12-07T04:34:02;0.40;99.90
13074;DHT22;6603;47.066;15.396;2022-12-07T04:36:28;0.50;99.90
13074;DHT22;6603;47.066;15.396;2022-12-07T04:38:55;0.40;99.90
13074;DHT22;6603;47.066;15.396;2022-12-07T04:41:22;0.40;99.90
13074;DHT22;6603;47.066;15.396;2022-12-07T04:43:55;0.40;99.90
13074;DHT22;6603;47.066;15.396;2022-12-07T04:46:23;0.50;99.90
13074;DHT22;6603;47.066;15.396;2022-12-07T04:48:50;0.50;99.90
13074;DHT22;6603;47.066;15.396;2022-12-07T04:51:20;0.30;99.90
13074;DHT22;6603;47.066;15.396;2022-12-07T04:53:47;0.20;99.90
13074;DHT22;6603;47.066;15.396;2022-12-07T04:56:14;0.30;99.90
13074;DHT22;6603;47.066;15.396;2022-12-07T04:58:41;0.20;99.90
13074;DHT22;6603;47.066;15.396;2022-12-07T05:01:07;0.20;99.90
13074;DHT22;6603;47.066;15.396;2022-12-07T05:03:33;0.20;99.90
13074;DHT22;6603;47.066;15.396;2022-12-07T05:05:59;0.20;99.90
13074;DHT22;6603;47.066;15.396;2022-12-07T05:08:25;0.20;99.90
13074;DHT22;6603;47.066;15.396;2022-12-07T05:10:51;0.20;99.90
13074;DHT22;6603;47.066;15.396;2022-12-07T05:13:17;0.20;99.90
13074;DHT22;6603;47.066;15.396;2022-12-07T05:15:43;0.20;99.90
13074;DHT22;6603;47.066;15.396;2022-12-07T05:18:10;0.30;99.90
13074;DHT22;6603;47.066;15.396;2022-12-07T05:20:39;0.30;99.90
13074;DHT22;6603;47.066;15.396;2022-12-07T05:23:05;0.40;99.90
13074;DHT22;6603;47.066;15.396;2022-12-07T05:25:31;0.40;99.90
13074;DHT22;6603;47.066;15.396;2022-12-07T05:27:57;0.40;99.90
13074;DHT22;6603;47.066;15.396;2022-12-07T05:30:24;0.40;99.90
13074;DHT22;6603;47.066;15.396;2022-12-07T05:32:50;0.40;99.90
13074;DHT22;6603;47.066;15.396;2022-12-07T05:35:17;0.30;99.90
13074;DHT22;6603;47.066;15.396;2022-12-07T05:37:44;0.30;99.90
13074;DHT22;6603;47.066;15.396;2022-12-07T05:40:11;0.20;99.90
13074;DHT22;6603;47.066;15.396;2022-12-07T05:42:38;0.20;99.90
13074;DHT22;6603;47.066;15.396;2022-12-07T05:45:05;0.20;99.90
13074;DHT22;6603;47.066;15.396;2022-12-07T05:47:31;0.30;99.90
13074;DHT22;6603;47.066;15.396;2022-12-07T05:49:57;0.20;99.90
13074;DHT22;6603;47.066;15.396;2022-12-07T05:52:23;0.20;99.90
13074;DHT22;6603;47.066;15.396;2022-12-07T05:54:48;0.20;99.90
13074;DHT22;6603;47.066;15.396;2022-12-07T05:57:14;0.10;99.90
13074;DHT22;6603;47.066;15.396;2022-12-07T05:59:42;0.00;99.90
13074;DHT22;6603;47.066;15.396;2022-12-07T06:02:10;0.10;99.90
13074;DHT22;6603;47.066;15.396;2022-12-07T06:04:39;0.10;99.90
13074;DHT22;6603;47.066;15.396;2022-12-07T06:07:06;0.10;99.90
13074;DHT22;6603;47.066;15.396;2022-12-07T06:09:33;0.00;99.90
13074;DHT22;6603;47.066;15.396;2022-12-07T06:11:59;0.00;99.90
13074;DHT22;6603;47.066;15.396;2022-12-07T06:14:44;-0.20;99.90
13074;DHT22;6603;47.066;15.396;2022-12-07T06:17:10;-0.10;99.90
13074;DHT22;6603;47.066;15.396;2022-12-07T06:19:38;0.00;99.90
13074;DHT22;6603;47.066;15.396;2022-12-07T06:22:05;0.10;99.90
13074;DHT22;6603;47.066;15.396;2022-12-07T06:24:32;0.10;99.90
13074;DHT22;6603;47.066;15.396;2022-12-07T06:26:58;0.10;99.90
13074;DHT22;6603;47.066;15.396;2022-12-07T06:29:24;0.10;99.90
13074;DHT22;6603;47.066;15.396;2022-12-07T06:31:50;0.10;99.90
13074;DHT22;6603;47.066;15.396;2022-12-07T06:34:19;0.00;99.90
13074;DHT22;6603;47.066;15.396;2022-12-07T06:36:46;0.00;99.90
13074;DHT22;6603;47.066;15.396;2022-12-07T06:39:17;0.00;99.90
13074;DHT22;6603;47.066;15.396;2022-12-07T06:41:44;0.10;99.90
13074;DHT22;6603;47.066;15.396;2022-12-07T06:44:10;0.20;99.90
13074;DHT22;6603;47.066;15.396;2022-12-07T06:46:36;0.20;99.90
13074;DHT22;6603;47.066;15.396;2022-12-07T06:49:03;0.30;99.90
13074;DHT22;6603;47.066;15.396;2022-12-07T06:51:30;0.20;99.90
13074;DHT22;6603;47.066;15.396;2022-12-07T06:53:57;0.30;99.90
13074;DHT22;6603;47.066;15.396;2022-12-07T06:56:23;0.30;99.90
13074;DHT22;6603;47.066;15.396;2022-12-07T06:58:49;0.30;99.90
13074;DHT22;6603;47.066;15.396;2022-12-07T07:01:17;0.30;99.90
13074;DHT22;6603;47.066;15.396;2022-12-07T07:03:46;0.40;99.90
13074;DHT22;6603;47.066;15.396;2022-12-07T07:06:13;0.40;99.90
13074;DHT22;6603;47.066;15.396;2022-12-07T07:08:41;0.50;99.90
13074;DHT22;6603;47.066;15.396;2022-12-07T07:11:08;0.50;99.90
13074;DHT22;6603;47.066;15.396;2022-12-07T07:13:35;0.50;99.90
13074;DHT22;6603;47.066;15.396;2022-12-07T07:16:02;0.50;99.90
13074;DHT22;6603;47.066;15.396;2022-12-07T07:18:28;0.60;99.90
13074;DHT22;6603;47.066;15.396;2022-12-07T07:20:54;0.50;99.90
13074;DHT22;6603;47.066;15.396;2022-12-07T07:23:21;0.70;99.90
13074;DHT22;6603;47.066;15.396;2022-12-07T07:25:47;0.60;99.90
13074;DHT22;6603;47.066;15.396;2022-12-07T07:28:14;0.50;99.90
13074;DHT22;6603;47.066;15.396;2022-12-07T07:30:40;0.40;99.90
13074;DHT22;6603;47.066;15.396;2022-12-07T07:33:07;0.50;99.90
13074;DHT22;6603;47.066;15.396;2022-12-07T07:35:34;0.50;99.90
13074;DHT22;6603;47.066;15.396;2022-12-07T07:38:00;0.60;99.90
13074;DHT22;6603;47.066;15.396;2022-12-07T07:40:27;0.50;99.90
13074;DHT22;6603;47.066;15.396;2022-12-07T07:42:55;0.50;99.90
13074;DHT22;6603;47.066;15.396;2022-12-07T07:45:23;0.60;99.90
13074;DHT22;6603;47.066;15.396;2022-12-07T07:47:49;0.60;99.90
13074;DHT22;6603;47.066;15.396;2022-12-07T08:00:14;1.00;99.90
13074;DHT22;6603;47.066;15.396;2022-12-07T08:02:42;1.00;99.90
13074;DHT22;6603;47.066;15.396;2022-12-07T08:05:12;1.00;99.90
13074;DHT22;6603;47.066;15.396;2022-12-07T08:07:39;1.00;99.90
13074;DHT22;6603;47.066;15.396;2022-12-07T08:10:06;1.10;99.90
13074;DHT22;6603;47.066;15.396;2022-12-07T08:12:36;1.30;99.90
13074;DHT22;6603;47.066;15.396;2022-12-07T08:15:03;1.20;99.90
13074;DHT22;6603;47.066;15.396;2022-12-07T08:17:30;1.20;99.90
13074;DHT22;6603;47.066;15.396;2022-12-07T08:19:56;1.30;99.90
13074;DHT22;6603;47.066;15.396;2022-12-07T08:22:22;1.30;99.90
13074;DHT22;6603;47.066;15.396;2022-12-07T08:24:48;1.40;99.90
13074;DHT22;6603;47.066;15.396;2022-12-07T08:27:14;1.30;99.90
13074;DHT22;6603;47.066;15.396;2022-12-07T08:29:40;1.40;99.90
13074;DHT22;6603;47.066;15.396;2022-12-07T08:32:06;1.30;99.90
13074;DHT22;6603;47.066;15.396;2022-12-07T08:34:33;1.30;99.90
13074;DHT22;6603;47.066;15.396;2022-12-07T08:36:59;1.40;99.90
13074;DHT22;6603;47.066;15.396;2022-12-07T08:39:25;1.50;99.90
13074;DHT22;6603;47.066;15.396;2022-12-07T08:41:51;1.50;99.90
13074;DHT22;6603;47.066;15.396;2022-12-07T08:44:17;1.50;99.90
13074;DHT22;6603;47.066;15.396;2022-12-07T08:47:02;1.70;99.90
13074;DHT22;6603;47.066;15.396;2022-12-07T08:49:35;1.70;99.90
13074;DHT22;6603;47.066;15.396;2022-12-07T08:52:04;1.80;99.90
13074;DHT22;6603;47.066;15.396;2022-12-07T08:54:34;1.90;99.90
13074;DHT22;6603;47.066;15.396;2022-12-07T08:57:01;1.80;99.90
13074;DHT22;6603;47.066;15.396;2022-12-07T08:59:28;1.90;99.90
13074;DHT22;6603;47.066;15.396;2022-12-07T09:01:54;2.00;99.90
13074;DHT22;6603;47.066;15.396;2022-12-07T09:04:20;2.10;99.90
13074;DHT22;6603;47.066;15.396;2022-12-07T09:06:47;2.00;99.90
13074;DHT22;6603;47.066;15.396;2022-12-07T09:09:14;2.10;99.90
13074;DHT22;6603;47.066;15.396;2022-12-07T09:11:40;2.10;99.90
13074;DHT22;6603;47.066;15.396;2022-12-07T09:14:07;1.90;99.90
13074;DHT22;6603;47.066;15.396;2022-12-07T09:16:33;1.90;99.90
13074;DHT22;6603;47.066;15.396;2022-12-07T09:18:59;2.20;99.90
13074;DHT22;6603;47.066;15.396;2022-12-07T09:21:24;2.10;99.90
13074;DHT22;6603;47.066;15.396;2022-12-07T09:23:50;2.30;99.90
13074;DHT22;6603;47.066;15.396;2022-12-07T09:26:16;2.40;99.90
13074;DHT22;6603;47.066;15.396;2022-12-07T09:28:42;2.50;99.90
13074;DHT22;6603;47.066;15.396;2022-12-07T09:31:08;2.60;99.90
13074;DHT22;6603;47.066;15.396;2022-12-07T09:33:34;2.70;99.90
13074;DHT22;6603;47.066;15.396;2022-12-07T09:36:00;2.50;99.90
13074;DHT22;6603;47.066;15.396;2022-12-07T09:38:26;2.60;99.90
13074;DHT22;6603;47.066;15.396;2022-12-07T09:40:54;2.50;99.90
13074;DHT22;6603;47.066;15.396;2022-12-07T09:43:24;2.50;99.90
13074;DHT22;6603;47.066;15.396;2022-12-07T09:45:52;2.80;99.90
13074;DHT22;6603;47.066;15.396;2022-12-07T09:48:32;2.90;99.90
13074;DHT22;6603;47.066;15.396;2022-12-07T09:51:00;3.00;99.90
13074;DHT22;6603;47.066;15.396;2022-12-07T09:53:50;3.10;99.90
13074;DHT22;6603;47.066;15.396;2022-12-07T09:56:18;3.20;99.90
13074;DHT22;6603;47.066;15.396;2022-12-07T09:58:45;3.20;99.90
13074;DHT22;6603;47.066;15.396;2022-12-07T10:01:20;2.90;99.90
13074;DHT22;6603;47.066;15.396;2022-12-07T10:03:52;3.00;99.90
13074;DHT22;6603;47.066;15.396;2022-12-07T10:06:19;2.80;99.90
13074;DHT22;6603;47.066;15.396;2022-12-07T10:08:45;2.90;99.90
13074;DHT22;6603;47.066;15.396;2022-12-07T10:11:11;3.00;99.90
13074;DHT22;6603;47.066;15.396;2022-12-07T10:13:40;3.10;99.90
13074;DHT22;6603;47.066;15.396;2022-12-07T10:16:10;3.10;99.90
13074;DHT22;6603;47.066;15.396;2022-12-07T10:18:54;3.10;99.90
13074;DHT22;6603;47.066;15.396;2022-12-07T10:21:25;3.00;99.90
13074;DHT22;6603;47.066;15.396;2022-12-07T10:31:42;3.30;99.90
13074;DHT22;6603;47.066;15.396;2022-12-07T10:34:28;3.40;99.90
13074;DHT22;6603;47.066;15.396;2022-12-07T10:44:48;4.00;99.90
13074;DHT22;6603;47.066;15.396;2022-12-07T11:01:13;4.20;99.90
13074;DHT22;6603;47.066;15.396;2022-12-07T11:17:48;4.70;99.90
13074;DHT22;6603;47.066;15.396;2022-12-07T11:25:53;4.70;93.60
13074;DHT22;6603;47.066;15.396;2022-12-07T11:33:49;4.50;99.90
13074;DHT22;6603;47.066;15.396;2022-12-07T11:36:37;4.40;95.60
13074;DHT22;6603;47.066;15.396;2022-12-07T11:39:34;4.40;99.90
13074;DHT22;6603;47.066;15.396;2022-12-07T11:42:12;4.50;99.90
13074;DHT22;6603;47.066;15.396;2022-12-07T11:50:37;4.40;99.90
13074;DHT22;6603;47.066;15.396;2022-12-07T11:53:18;4.30;99.90
13074;DHT22;6603;47.066;15.396;2022-12-07T12:09:05;4.60;99.90
13074;DHT22;6603;47.066;15.396;2022-12-07T12:14:32;5.40;99.90
13074;DHT22;6603;47.066;15.396;2022-12-07T12:17:07;5.70;94.00
13074;DHT22;6603;47.066;15.396;2022-12-07T12:25:05;5.80;40.40
13074;DHT22;6603;47.066;15.396;2022-12-07T12:27:34;5.80;39.40
13074;DHT22;6603;47.066;15.396;2022-12-07T12:30:05;5.90;19.30
13074;DHT22;6603;47.066;15.396;2022-12-07T12:32:43;5.70;1.00
13074;DHT22;6603;47.066;15.396;2022-12-07T12:35:30;5.70;27.90
13074;DHT22;6603;47.066;15.396;2022-12-07T12:38:23;5.60;1.00
13074;DHT22;6603;47.066;15.396;2022-12-07T12:40:50;5.90;1.00
13074;DHT22;6603;47.066;15.396;2022-12-07T12:46:56;6.20;1.00
13074;DHT22;6603;47.066;15.396;2022-12-07T12:54:33;6.10;1.00
13074;DHT22;6603;47.066;15.396;2022-12-07T12:57:30;6.20;1.00
13074;DHT22;6603;47.066;15.396;2022-12-07T12:59:58;6.10;1.00
13074;DHT22;6603;47.066;15.396;2022-12-07T13:02:35;5.70;12.00
13074;DHT22;6603;47.066;15.396;2022-12-07T13:10:25;5.40;46.70
13074;DHT22;6603;47.066;15.396;2022-12-07T13:15:55;5.00;99.90
13074;DHT22;6603;47.066;15.396;2022-12-07T13:18:41;4.90;99.90
13074;DHT22;6603;47.066;15.396;2022-12-07T13:31:48;4.50;99.90
13074;DHT22;6603;47.066;15.396;2022-12-07T13:34:34;4.40;99.90
13074;DHT22;6603;47.066;15.396;2022-12-07T13:37:10;4.30;99.90
13074;DHT22;6603;47.066;15.396;2022-12-07T13:42:34;4.20;99.90
13074;DHT22;6603;47.066;15.396;2022-12-07T13:45:21;4.10;99.90
13074;DHT22;6603;47.066;15.396;2022-12-07T13:47:53;4.10;99.90
13074;DHT22;6603;47.066;15.396;2022-12-07T13:50:31;4.10;99.90
13074;DHT22;6603;47.066;15.396;2022-12-07T13:52:59;4.10;99.90
13074;DHT22;6603;47.066;15.396;2022-12-07T13:55:28;4.00;99.90
13074;DHT22;6603;47.066;15.396;2022-12-07T13:57:55;3.90;99.90
13074;DHT22;6603;47.066;15.396;2022-12-07T14:00:26;3.90;99.90
13074;DHT22;6603;47.066;15.396;2022-12-07T14:05:37;3.80;99.90
13074;DHT22;6603;47.066;15.396;2022-12-07T14:08:21;3.70;99.90
13074;DHT22;6603;47.066;15.396;2022-12-07T14:15:51;3.70;99.90
13074;DHT22;6603;47.066;15.396;2022-12-07T14:18:31;3.70;99.90
13074;DHT22;6603;47.066;15.396;2022-12-07T14:21:18;3.70;99.90
13074;DHT22;6603;47.066;15.396;2022-12-07T14:23:45;3.60;99.90
13074;DHT22;6603;47.066;15.396;2022-12-07T14:26:13;3.60;99.90
13074;DHT22;6603;47.066;15.396;2022-12-07T14:28:41;3.50;99.90
13074;DHT22;6603;47.066;15.396;2022-12-07T14:31:25;3.50;99.90
13074;DHT22;6603;47.066;15.396;2022-12-07T14:33:51;3.50;99.90
13074;DHT22;6603;47.066;15.396;2022-12-07T14:36:17;3.50;99.90
13074;DHT22;6603;47.066;15.396;2022-12-07T14:38:43;3.40;99.90
13074;DHT22;6603;47.066;15.396;2022-12-07T14:41:18;3.30;99.90
13074;DHT22;6603;47.066;15.396;2022-12-07T14:44:11;3.30;99.90
13074;DHT22;6603;47.066;15.396;2022-12-07T14:46:37;3.30;99.90
13074;DHT22;6603;47.066;15.396;2022-12-07T14:49:03;3.40;99.90
13074;DHT22;6603;47.066;15.396;2022-12-07T14:51:29;3.40;99.90
13074;DHT22;6603;47.066;15.396;2022-12-07T14:53:55;3.30;99.90
13074;DHT22;6603;47.066;15.396;2022-12-07T14:56:21;3.10;99.90
13074;DHT22;6603;47.066;15.396;2022-12-07T14:58:47;3.10;99.90
13074;DHT22;6603;47.066;15.396;2022-12-07T15:01:14;3.10;99.90
13074;DHT22;6603;47.066;15.396;2022-12-07T15:03:40;3.00;99.90
13074;DHT22;6603;47.066;15.396;2022-12-07T15:06:06;3.10;99.90
13074;DHT22;6603;47.066;15.396;2022-12-07T15:08:33;3.10;99.90
13074;DHT22;6603;47.066;15.396;2022-12-07T15:11:02;3.20;99.90
13074;DHT22;6603;47.066;15.396;2022-12-07T15:13:28;3.20;99.90
13074;DHT22;6603;47.066;15.396;2022-12-07T15:16:18;3.20;99.90
13074;DHT22;6603;47.066;15.396;2022-12-07T15:18:45;3.20;99.90
13074;DHT22;6603;47.066;15.396;2022-12-07T15:21:14;3.20;99.90
13074;DHT22;6603;47.066;15.396;2022-12-07T15:23:40;3.20;99.90
13074;DHT22;6603;47.066;15.396;2022-12-07T15:26:07;3.20;99.90
13074;DHT22;6603;47.066;15.396;2022-12-07T15:28:35;3.30;99.90
13074;DHT22;6603;47.066;15.396;2022-12-07T15:31:01;3.30;99.90
13074;DHT22;6603;47.066;15.396;2022-12-07T15:33:27;3.40;99.90
13074;DHT22;6603;47.066;15.396;2022-12-07T15:35:53;3.40;99.90
13074;DHT22;6603;47.066;15.396;2022-12-07T15:38:19;3.30;99.90
13074;DHT22;6603;47.066;15.396;2022-12-07T15:40:49;3.30;99.90
13074;DHT22;6603;47.066;15.396;2022-12-07T15:43:16;3.40;99.90
13074;DHT22;6603;47.066;15.396;2022-12-07T15:46:01;3.40;99.90
13074;DHT22;6603;47.066;15.396;2022-12-07T15:48:28;3.40;99.90
13074;DHT22;6603;47.066;15.396;2022-12-07T15:51:05;3.20;99.90
13074;DHT22;6603;47.066;15.396;2022-12-07T15:53:31;3.20;99.90
13074;DHT22;6603;47.066;15.396;2022-12-07T15:55:57;3.20;99.90
13074;DHT22;6603;47.066;15.396;2022-12-07T15:58:23;3.00;99.90
13074;DHT22;6603;47.066;15.396;2022-12-07T16:00:49;3.10;99.90
13074;DHT22;6603;47.066;15.396;2022-12-07T16:03:15;2.90;99.90
13074;DHT22;6603;47.066;15.396;2022-12-07T16:05:41;3.10;99.90
13074;DHT22;6603;47.066;15.396;2022-12-07T16:08:08;3.20;99.90
13074;DHT22;6603;47.066;15.396;2022-12-07T16:10:34;3.30;99.90
13074;DHT22;6603;47.066;15.396;2022-12-07T16:13:00;3.30;99.90
13074;DHT22;6603;47.066;15.396;2022-12-07T16:15:26;3.30;99.90
13074;DHT22;6603;47.066;15.396;2022-12-07T16:17:52;3.20;99.90
13074;DHT22;6603;47.066;15.396;2022-12-07T16:20:19;3.20;99.90
13074;DHT22;6603;47.066;15.396;2022-12-07T16:22:45;3.20;99.90
13074;DHT22;6603;47.066;15.396;2022-12-07T16:25:11;3.20;99.90
13074;DHT22;6603;47.066;15.396;2022-12-07T16:27:37;3.10;99.90
13074;DHT22;6603;47.066;15.396;2022-12-07T16:30:03;3.10;99.90
13074;DHT22;6603;47.066;15.396;2022-12-07T16:32:30;3.00;99.90
13074;DHT22;6603;47.066;15.396;2022-12-07T16:34:56;3.10;99.90
13074;DHT22;6603;47.066;15.396;2022-12-07T16:37:22;3.10;99.90
13074;DHT22;6603;47.066;15.396;2022-12-07T16:39:49;3.10;99.90
13074;DHT22;6603;47.066;15.396;2022-12-07T16:42:15;3.10;99.90
13074;DHT22;6603;47.066;15.396;2022-12-07T16:44:40;3.10;99.90
13074;DHT22;6603;47.066;15.396;2022-12-07T16:47:07;3.10;99.90
13074;DHT22;6603;47.066;15.396;2022-12-07T16:49:32;3.10;99.90
13074;DHT22;6603;47.066;15.396;2022-12-07T16:51:58;3.10;99.90
13074;DHT22;6603;47.066;15.396;2022-12-07T16:54:24;3.10;99.90
13074;DHT22;6603;47.066;15.396;2022-12-07T16:56:50;3.20;99.90
13074;DHT22;6603;47.066;15.396;2022-12-07T16:59:19;3.20;99.90
13074;DHT22;6603;47.066;15.396;2022-12-07T17:01:45;3.20;99.90
13074;DHT22;6603;47.066;15.396;2022-12-07T17:04:10;3.30;99.90
13074;DHT22;6603;47.066;15.396;2022-12-07T17:06:37;3.20;99.90
13074;DHT22;6603;47.066;15.396;2022-12-07T17:09:03;3.20;99.90
13074;DHT22;6603;47.066;15.396;2022-12-07T17:11:31;3.30;99.90
13074;DHT22;6603;47.066;15.396;2022-12-07T17:13:57;3.20;99.90
13074;DHT22;6603;47.066;15.396;2022-12-07T17:16:41;3.30;99.90
13074;DHT22;6603;47.066;15.396;2022-12-07T17:19:09;3.20;99.90
13074;DHT22;6603;47.066;15.396;2022-12-07T17:21:35;3.20;99.90
13074;DHT22;6603;47.066;15.396;2022-12-07T17:24:02;3.20;99.90
13074;DHT22;6603;47.066;15.396;2022-12-07T17:26:29;3.20;99.90
13074;DHT22;6603;47.066;15.396;2022-12-07T17:28:56;3.20;99.90
13074;DHT22;6603;47.066;15.396;2022-12-07T17:31:23;3.30;99.90
13074;DHT22;6603;47.066;15.396;2022-12-07T17:33:49;3.40;99.90
13074;DHT22;6603;47.066;15.396;2022-12-07T17:36:21;3.30;99.90
13074;DHT22;6603;47.066;15.396;2022-12-07T17:38:48;3.30;99.90
13074;DHT22;6603;47.066;15.396;2022-12-07T17:41:15;3.40;99.90
13074;DHT22;6603;47.066;15.396;2022-12-07T17:44:01;3.50;99.90
13074;DHT22;6603;47.066;15.396;2022-12-07T17:46:27;3.40;99.90
13074;DHT22;6603;47.066;15.396;2022-12-07T17:48:57;3.40;99.90
13074;DHT22;6603;47.066;15.396;2022-12-07T17:51:23;3.30;99.90
13074;DHT22;6603;47.066;15.396;2022-12-07T17:54:08;3.30;99.90
13074;DHT22;6603;47.066;15.396;2022-12-07T17:56:35;3.30;99.90
13074;DHT22;6603;47.066;15.396;2022-12-07T17:59:01;3.30;99.90
13074;DHT22;6603;47.066;15.396;2022-12-07T18:01:27;3.30;99.90
13074;DHT22;6603;47.066;15.396;2022-12-07T18:03:52;3.30;99.90
13074;DHT22;6603;47.066;15.396;2022-12-07T18:06:18;3.20;99.90
13074;DHT22;6603;47.066;15.396;2022-12-07T18:08:44;3.20;99.90
13074;DHT22;6603;47.066;15.396;2022-12-07T18:11:10;3.20;99.90
13074;DHT22;6603;47.066;15.396;2022-12-07T18:13:35;3.20;99.90
13074;DHT22;6603;47.066;15.396;2022-12-07T18:16:05;3.30;99.90
13074;DHT22;6603;47.066;15.396;2022-12-07T18:18:31;3.30;99.90
13074;DHT22;6603;47.066;15.396;2022-12-07T18:20:57;3.30;99.90
13074;DHT22;6603;47.066;15.396;2022-12-07T18:23:26;3.30;99.90
13074;DHT22;6603;47.066;15.396;2022-12-07T18:25:53;3.30;99.90
13074;DHT22;6603;47.066;15.396;2022-12-07T18:28:19;3.20;99.90
13074;DHT22;6603;47.066;15.396;2022-12-07T18:30:45;3.20;99.90
13074;DHT22;6603;47.066;15.396;2022-12-07T18:33:18;3.30;99.90
13074;DHT22;6603;47.066;15.396;2022-12-07T18:35:45;3.30;99.90
13074;DHT22;6603;47.066;15.396;2022-12-07T18:38:15;3.30;99.90
13074;DHT22;6603;47.066;15.396;2022-12-07T18:40:42;3.30;99.90
13074;DHT22;6603;47.066;15.396;2022-12-07T18:43:09;3.30;99.90
13074;DHT22;6603;47.066;15.396;2022-12-07T18:45:37;3.30;99.90
13074;DHT22;6603;47.066;15.396;2022-12-07T18:48:04;3.30;99.90
13074;DHT22;6603;47.066;15.396;2022-12-07T18:50:31;3.30;99.90
13074;DHT22;6603;47.066;15.396;2022-12-07T18:53:02;3.30;99.90
13074;DHT22;6603;47.066;15.396;2022-12-07T18:55:29;3.20;99.90